sensor_id;sensor_type;location;lat;lon;timestamp;P1;durP1;ratioP1;P2;durP2;ratioP2
51214;SDS011;63849;47.546;19.254;2023-06-22T00:00:56;11.27;;;5.10;;
51214;SDS011;63849;47.546;19.254;2023-06-22T00:03:23;7.10;;;5.13;;
51214;SDS011;63849;47.546;19.254;2023-06-22T00:05:49;8.10;;;5.10;;
51214;SDS011;63849;47.546;19.254;2023-06-22T00:08:16;9.23;;;5.22;;
51214;SDS011;63849;47.546;19.254;2023-06-22T00:10:43;8.15;;;4.80;;
51214;SDS011;63849;47.546;19.254;2023-06-22T00:13:10;11.27;;;5.18;;
51214;SDS011;63849;47.546;19.254;2023-06-22T00:15:37;9.68;;;5.45;;
51214;SDS011;63849;47.546;19.254;2023-06-22T00:18:08;10.07;;;5.10;;
51214;SDS011;63849;47.546;19.254;2023-06-22T00:20:34;9.68;;;4.70;;
51214;SDS011;63849;47.546;19.254;2023-06-22T00:23:04;8.80;;;4.75;;
51214;SDS011;63849;47.546;19.254;2023-06-22T00:25:32;9.98;;;5.15;;
51214;SDS011;63849;47.546;19.254;2023-06-22T00:27:57;7.88;;;4.85;;
51214;SDS011;63849;47.546;19.254;2023-06-22T00:30:23;7.93;;;5.28;;
51214;SDS011;63849;47.546;19.254;2023-06-22T00:32:49;10.18;;;5.15;;
51214;SDS011;63849;47.546;19.254;2023-06-22T00:35:16;9.18;;;5.72;;
51214;SDS011;63849;47.546;19.254;2023-06-22T00:37:42;9.18;;;5.78;;
51214;SDS011;63849;47.546;19.254;2023-06-22T00:40:09;10.60;;;5.45;;
51214;SDS011;63849;47.546;19.254;2023-06-22T00:42:39;8.05;;;5.68;;
51214;SDS011;63849;47.546;19.254;2023-06-22T00:45:06;9.52;;;5.43;;
51214;SDS011;63849;47.546;19.254;2023-06-22T00:47:32;8.88;;;6.05;;
51214;SDS011;63849;47.546;19.254;2023-06-22T00:49:59;7.80;;;5.10;;
51214;SDS011;63849;47.546;19.254;2023-06-22T00:52:25;9.98;;;6.50;;
51214;SDS011;63849;47.546;19.254;2023-06-22T00:54:54;9.73;;;6.10;;
51214;SDS011;63849;47.546;19.254;2023-06-22T00:57:22;8.55;;;5.55;;
51214;SDS011;63849;47.546;19.254;2023-06-22T00:59:53;8.32;;;5.57;;
51214;SDS011;63849;47.546;19.254;2023-06-22T01:02:19;8.10;;;5.70;;
51214;SDS011;63849;47.546;19.254;2023-06-22T01:04:45;8.32;;;5.93;;
51214;SDS011;63849;47.546;19.254;2023-06-22T01:10:21;12.02;;;5.97;;
51214;SDS011;63849;47.546;19.254;2023-06-22T01:15:53;9.85;;;6.07;;
51214;SDS011;63849;47.546;19.254;2023-06-22T01:18:24;9.38;;;5.82;;
51214;SDS011;63849;47.546;19.254;2023-06-22T01:20:53;11.05;;;5.82;;
51214;SDS011;63849;47.546;19.254;2023-06-22T01:26:05;11.77;;;5.65;;
51214;SDS011;63849;47.546;19.254;2023-06-22T01:28:43;8.75;;;5.70;;
51214;SDS011;63849;47.546;19.254;2023-06-22T01:31:14;10.05;;;5.38;;
51214;SDS011;63849;47.546;19.254;2023-06-22T01:33:44;11.68;;;6.20;;
51214;SDS011;63849;47.546;19.254;2023-06-22T01:36:14;10.40;;;5.95;;
51214;SDS011;63849;47.546;19.254;2023-06-22T01:38:41;9.63;;;5.78;;
51214;SDS011;63849;47.546;19.254;2023-06-22T01:41:08;11.35;;;5.80;;
51214;SDS011;63849;47.546;19.254;2023-06-22T01:43:35;9.98;;;6.35;;
51214;SDS011;63849;47.546;19.254;2023-06-22T01:46:01;6.60;;;5.57;;
51214;SDS011;63849;47.546;19.254;2023-06-22T01:48:28;10.80;;;6.03;;
51214;SDS011;63849;47.546;19.254;2023-06-22T01:50:54;9.55;;;6.13;;
51214;SDS011;63849;47.546;19.254;2023-06-22T01:53:21;9.88;;;6.15;;
51214;SDS011;63849;47.546;19.254;2023-06-22T01:55:47;10.43;;;5.53;;
51214;SDS011;63849;47.546;19.254;2023-06-22T01:58:13;9.80;;;6.03;;
51214;SDS011;63849;47.546;19.254;2023-06-22T02:00:40;10.73;;;5.78;;
51214;SDS011;63849;47.546;19.254;2023-06-22T02:03:19;8.77;;;5.72;;
51214;SDS011;63849;47.546;19.254;2023-06-22T02:08:57;11.13;;;5.68;;
51214;SDS011;63849;47.546;19.254;2023-06-22T02:11:26;9.68;;;5.03;;
51214;SDS011;63849;47.546;19.254;2023-06-22T02:13:55;9.48;;;5.60;;
51214;SDS011;63849;47.546;19.254;2023-06-22T02:16:22;9.95;;;5.65;;
51214;SDS011;63849;47.546;19.254;2023-06-22T02:18:48;11.27;;;5.80;;
51214;SDS011;63849;47.546;19.254;2023-06-22T02:21:18;9.43;;;5.75;;
51214;SDS011;63849;47.546;19.254;2023-06-22T02:23:45;7.50;;;5.63;;
51214;SDS011;63849;47.546;19.254;2023-06-22T02:26:11;9.60;;;5.93;;
51214;SDS011;63849;47.546;19.254;2023-06-22T02:28:37;11.38;;;5.50;;
51214;SDS011;63849;47.546;19.254;2023-06-22T02:31:03;8.20;;;5.05;;
51214;SDS011;63849;47.546;19.254;2023-06-22T02:33:29;7.60;;;5.18;;
51214;SDS011;63849;47.546;19.254;2023-06-22T02:35:55;8.23;;;6.15;;
51214;SDS011;63849;47.546;19.254;2023-06-22T02:38:21;8.35;;;5.63;;
51214;SDS011;63849;47.546;19.254;2023-06-22T02:40:49;7.60;;;6.03;;
51214;SDS011;63849;47.546;19.254;2023-06-22T02:43:15;7.45;;;5.20;;
51214;SDS011;63849;47.546;19.254;2023-06-22T02:45:41;9.18;;;5.60;;
51214;SDS011;63849;47.546;19.254;2023-06-22T02:48:07;10.63;;;5.70;;
51214;SDS011;63849;47.546;19.254;2023-06-22T02:50:33;10.95;;;6.50;;
51214;SDS011;63849;47.546;19.254;2023-06-22T02:52:59;9.18;;;5.85;;
51214;SDS011;63849;47.546;19.254;2023-06-22T02:55:24;8.77;;;5.70;;
51214;SDS011;63849;47.546;19.254;2023-06-22T02:57:50;7.65;;;5.47;;
51214;SDS011;63849;47.546;19.254;2023-06-22T03:00:17;9.98;;;5.97;;
51214;SDS011;63849;47.546;19.254;2023-06-22T03:02:47;9.00;;;5.80;;
51214;SDS011;63849;47.546;19.254;2023-06-22T03:05:14;7.57;;;5.70;;
51214;SDS011;63849;47.546;19.254;2023-06-22T03:07:43;9.40;;;5.78;;
51214;SDS011;63849;47.546;19.254;2023-06-22T03:10:09;10.27;;;5.35;;
51214;SDS011;63849;47.546;19.254;2023-06-22T03:12:37;9.45;;;6.03;;
51214;SDS011;63849;47.546;19.254;2023-06-22T03:15:04;7.63;;;6.03;;
51214;SDS011;63849;47.546;19.254;2023-06-22T03:17:34;9.00;;;6.15;;
51214;SDS011;63849;47.546;19.254;2023-06-22T03:20:01;13.80;;;6.38;;
51214;SDS011;63849;47.546;19.254;2023-06-22T03:22:34;9.18;;;5.55;;
51214;SDS011;63849;47.546;19.254;2023-06-22T03:25:01;8.60;;;5.85;;
51214;SDS011;63849;47.546;19.254;2023-06-22T03:27:27;9.60;;;5.95;;
51214;SDS011;63849;47.546;19.254;2023-06-22T03:29:53;8.07;;;6.07;;
51214;SDS011;63849;47.546;19.254;2023-06-22T03:32:18;9.65;;;5.55;;
51214;SDS011;63849;47.546;19.254;2023-06-22T03:34:44;10.75;;;6.55;;
51214;SDS011;63849;47.546;19.254;2023-06-22T03:37:12;8.45;;;6.10;;
51214;SDS011;63849;47.546;19.254;2023-06-22T03:39:40;7.93;;;5.68;;
51214;SDS011;63849;47.546;19.254;2023-06-22T03:42:06;9.27;;;5.90;;
51214;SDS011;63849;47.546;19.254;2023-06-22T03:44:32;7.97;;;6.18;;
51214;SDS011;63849;47.546;19.254;2023-06-22T03:46:58;10.45;;;6.03;;
51214;SDS011;63849;47.546;19.254;2023-06-22T03:49:24;12.88;;;6.53;;
51214;SDS011;63849;47.546;19.254;2023-06-22T03:51:49;10.10;;;6.35;;
51214;SDS011;63849;47.546;19.254;2023-06-22T03:54:15;9.75;;;6.25;;
51214;SDS011;63849;47.546;19.254;2023-06-22T03:56:41;11.35;;;6.35;;
51214;SDS011;63849;47.546;19.254;2023-06-22T03:59:07;12.00;;;6.53;;
51214;SDS011;63849;47.546;19.254;2023-06-22T04:01:32;11.73;;;6.68;;
51214;SDS011;63849;47.546;19.254;2023-06-22T04:03:58;14.15;;;7.05;;
51214;SDS011;63849;47.546;19.254;2023-06-22T04:06:24;10.02;;;5.88;;
51214;SDS011;63849;47.546;19.254;2023-06-22T04:08:49;9.88;;;6.40;;
51214;SDS011;63849;47.546;19.254;2023-06-22T04:11:19;8.70;;;6.35;;
51214;SDS011;63849;47.546;19.254;2023-06-22T04:13:44;10.77;;;6.40;;
51214;SDS011;63849;47.546;19.254;2023-06-22T04:16:10;13.43;;;6.15;;
51214;SDS011;63849;47.546;19.254;2023-06-22T04:18:36;12.65;;;6.60;;
51214;SDS011;63849;47.546;19.254;2023-06-22T04:21:02;8.68;;;5.68;;
51214;SDS011;63849;47.546;19.254;2023-06-22T04:23:28;10.20;;;6.55;;
51214;SDS011;63849;47.546;19.254;2023-06-22T04:25:54;12.60;;;6.70;;
51214;SDS011;63849;47.546;19.254;2023-06-22T04:28:21;8.13;;;6.38;;
51214;SDS011;63849;47.546;19.254;2023-06-22T04:30:47;13.60;;;7.93;;
51214;SDS011;63849;47.546;19.254;2023-06-22T04:33:14;12.38;;;7.70;;
51214;SDS011;63849;47.546;19.254;2023-06-22T04:35:40;11.15;;;7.00;;
51214;SDS011;63849;47.546;19.254;2023-06-22T04:38:08;13.43;;;7.53;;
51214;SDS011;63849;47.546;19.254;2023-06-22T04:40:35;11.50;;;7.80;;
51214;SDS011;63849;47.546;19.254;2023-06-22T04:43:01;12.30;;;7.07;;
51214;SDS011;63849;47.546;19.254;2023-06-22T04:45:27;12.77;;;7.03;;
51214;SDS011;63849;47.546;19.254;2023-06-22T04:47:54;9.93;;;6.47;;
51214;SDS011;63849;47.546;19.254;2023-06-22T04:50:20;10.30;;;6.70;;
51214;SDS011;63849;47.546;19.254;2023-06-22T04:52:47;17.98;;;7.68;;
51214;SDS011;63849;47.546;19.254;2023-06-22T04:55:13;14.90;;;7.00;;
51214;SDS011;63849;47.546;19.254;2023-06-22T04:57:46;14.80;;;7.05;;
51214;SDS011;63849;47.546;19.254;2023-06-22T05:00:23;12.30;;;7.13;;
51214;SDS011;63849;47.546;19.254;2023-06-22T05:02:51;12.95;;;7.40;;
51214;SDS011;63849;47.546;19.254;2023-06-22T05:05:17;11.32;;;6.90;;
51214;SDS011;63849;47.546;19.254;2023-06-22T05:07:43;15.73;;;7.43;;
51214;SDS011;63849;47.546;19.254;2023-06-22T05:10:12;14.00;;;7.20;;
51214;SDS011;63849;47.546;19.254;2023-06-22T05:12:39;13.35;;;7.72;;
51214;SDS011;63849;47.546;19.254;2023-06-22T05:15:06;11.77;;;7.00;;
51214;SDS011;63849;47.546;19.254;2023-06-22T05:17:33;13.85;;;6.45;;
51214;SDS011;63849;47.546;19.254;2023-06-22T05:19:59;14.80;;;6.47;;
51214;SDS011;63849;47.546;19.254;2023-06-22T05:22:27;11.18;;;6.13;;
51214;SDS011;63849;47.546;19.254;2023-06-22T05:24:52;9.75;;;5.53;;
51214;SDS011;63849;47.546;19.254;2023-06-22T05:27:18;11.93;;;6.10;;
51214;SDS011;63849;47.546;19.254;2023-06-22T05:29:44;11.07;;;5.85;;
51214;SDS011;63849;47.546;19.254;2023-06-22T05:32:10;8.48;;;5.32;;
51214;SDS011;63849;47.546;19.254;2023-06-22T05:34:36;10.75;;;6.10;;
51214;SDS011;63849;47.546;19.254;2023-06-22T05:37:02;9.23;;;5.50;;
51214;SDS011;63849;47.546;19.254;2023-06-22T05:39:28;10.48;;;5.88;;
51214;SDS011;63849;47.546;19.254;2023-06-22T05:41:54;10.75;;;6.43;;
51214;SDS011;63849;47.546;19.254;2023-06-22T05:44:20;8.90;;;5.60;;
51214;SDS011;63849;47.546;19.254;2023-06-22T05:46:46;11.60;;;5.60;;
51214;SDS011;63849;47.546;19.254;2023-06-22T05:49:13;10.32;;;6.30;;
51214;SDS011;63849;47.546;19.254;2023-06-22T05:51:39;9.23;;;6.25;;
51214;SDS011;63849;47.546;19.254;2023-06-22T05:54:06;13.15;;;6.55;;
51214;SDS011;63849;47.546;19.254;2023-06-22T05:56:33;12.95;;;5.93;;
51214;SDS011;63849;47.546;19.254;2023-06-22T05:58:58;12.90;;;6.80;;
51214;SDS011;63849;47.546;19.254;2023-06-22T06:01:24;11.02;;;6.18;;
51214;SDS011;63849;47.546;19.254;2023-06-22T06:03:51;10.43;;;5.90;;
51214;SDS011;63849;47.546;19.254;2023-06-22T06:06:18;8.02;;;5.22;;
51214;SDS011;63849;47.546;19.254;2023-06-22T06:08:46;10.43;;;5.82;;
51214;SDS011;63849;47.546;19.254;2023-06-22T06:11:12;8.43;;;5.28;;
51214;SDS011;63849;47.546;19.254;2023-06-22T06:13:37;10.80;;;5.35;;
51214;SDS011;63849;47.546;19.254;2023-06-22T06:16:04;9.73;;;5.80;;
51214;SDS011;63849;47.546;19.254;2023-06-22T06:18:30;8.27;;;4.72;;
51214;SDS011;63849;47.546;19.254;2023-06-22T06:20:56;10.45;;;4.97;;
51214;SDS011;63849;47.546;19.254;2023-06-22T06:23:23;9.32;;;4.72;;
51214;SDS011;63849;47.546;19.254;2023-06-22T06:25:49;9.82;;;4.72;;
51214;SDS011;63849;47.546;19.254;2023-06-22T06:28:14;6.95;;;4.70;;
51214;SDS011;63849;47.546;19.254;2023-06-22T06:30:40;7.53;;;4.88;;
51214;SDS011;63849;47.546;19.254;2023-06-22T06:33:06;8.57;;;5.30;;
51214;SDS011;63849;47.546;19.254;2023-06-22T06:35:34;8.05;;;5.10;;
51214;SDS011;63849;47.546;19.254;2023-06-22T06:38:00;10.32;;;5.25;;
51214;SDS011;63849;47.546;19.254;2023-06-22T06:40:25;7.70;;;5.40;;
51214;SDS011;63849;47.546;19.254;2023-06-22T06:42:51;11.85;;;5.03;;
51214;SDS011;63849;47.546;19.254;2023-06-22T06:45:18;11.45;;;4.88;;
51214;SDS011;63849;47.546;19.254;2023-06-22T06:47:45;7.47;;;5.03;;
51214;SDS011;63849;47.546;19.254;2023-06-22T06:50:11;5.88;;;4.90;;
51214;SDS011;63849;47.546;19.254;2023-06-22T06:52:38;6.47;;;4.32;;
51214;SDS011;63849;47.546;19.254;2023-06-22T06:55:04;9.05;;;4.97;;
51214;SDS011;63849;47.546;19.254;2023-06-22T06:57:34;9.80;;;5.55;;
51214;SDS011;63849;47.546;19.254;2023-06-22T07:00:00;9.27;;;5.28;;
51214;SDS011;63849;47.546;19.254;2023-06-22T07:02:27;6.32;;;4.75;;
51214;SDS011;63849;47.546;19.254;2023-06-22T07:04:55;9.95;;;5.57;;
51214;SDS011;63849;47.546;19.254;2023-06-22T07:07:21;13.77;;;5.70;;
51214;SDS011;63849;47.546;19.254;2023-06-22T07:09:47;10.15;;;5.03;;
51214;SDS011;63849;47.546;19.254;2023-06-22T07:12:12;9.85;;;4.88;;
51214;SDS011;63849;47.546;19.254;2023-06-22T07:14:38;7.60;;;4.80;;
51214;SDS011;63849;47.546;19.254;2023-06-22T07:17:04;5.72;;;4.82;;
51214;SDS011;63849;47.546;19.254;2023-06-22T07:19:30;6.65;;;4.43;;
51214;SDS011;63849;47.546;19.254;2023-06-22T07:21:56;9.13;;;4.43;;
51214;SDS011;63849;47.546;19.254;2023-06-22T07:24:22;9.07;;;4.50;;
51214;SDS011;63849;47.546;19.254;2023-06-22T07:26:50;10.90;;;4.63;;
51214;SDS011;63849;47.546;19.254;2023-06-22T07:29:17;5.80;;;4.70;;
51214;SDS011;63849;47.546;19.254;2023-06-22T07:31:44;6.97;;;4.20;;
51214;SDS011;63849;47.546;19.254;2023-06-22T07:34:10;6.82;;;4.18;;
51214;SDS011;63849;47.546;19.254;2023-06-22T07:36:36;6.93;;;4.20;;
51214;SDS011;63849;47.546;19.254;2023-06-22T07:39:02;5.55;;;3.97;;
51214;SDS011;63849;47.546;19.254;2023-06-22T07:41:29;4.30;;;3.22;;
51214;SDS011;63849;47.546;19.254;2023-06-22T07:43:55;8.13;;;4.40;;
51214;SDS011;63849;47.546;19.254;2023-06-22T07:46:21;9.43;;;4.78;;
51214;SDS011;63849;47.546;19.254;2023-06-22T07:48:47;4.45;;;3.28;;
51214;SDS011;63849;47.546;19.254;2023-06-22T07:51:13;5.82;;;4.15;;
51214;SDS011;63849;47.546;19.254;2023-06-22T07:53:42;7.20;;;4.20;;
51214;SDS011;63849;47.546;19.254;2023-06-22T07:56:12;9.15;;;4.43;;
51214;SDS011;63849;47.546;19.254;2023-06-22T07:58:38;6.80;;;4.00;;
51214;SDS011;63849;47.546;19.254;2023-06-22T08:01:05;8.38;;;4.53;;
51214;SDS011;63849;47.546;19.254;2023-06-22T08:03:31;9.63;;;4.15;;
51214;SDS011;63849;47.546;19.254;2023-06-22T08:05:57;7.85;;;5.05;;
51214;SDS011;63849;47.546;19.254;2023-06-22T08:08:23;7.50;;;4.40;;
51214;SDS011;63849;47.546;19.254;2023-06-22T08:10:49;8.35;;;4.68;;
51214;SDS011;63849;47.546;19.254;2023-06-22T08:13:15;6.35;;;4.75;;
51214;SDS011;63849;47.546;19.254;2023-06-22T08:15:40;7.32;;;4.20;;
51214;SDS011;63849;47.546;19.254;2023-06-22T08:18:06;9.20;;;4.40;;
51214;SDS011;63849;47.546;19.254;2023-06-22T08:20:32;5.75;;;4.28;;
51214;SDS011;63849;47.546;19.254;2023-06-22T08:22:58;8.27;;;4.57;;
51214;SDS011;63849;47.546;19.254;2023-06-22T08:25:30;9.37;;;3.93;;
51214;SDS011;63849;47.546;19.254;2023-06-22T08:27:56;7.55;;;4.63;;
51214;SDS011;63849;47.546;19.254;2023-06-22T08:30:21;6.47;;;4.50;;
51214;SDS011;63849;47.546;19.254;2023-06-22T08:32:47;8.18;;;4.85;;
51214;SDS011;63849;47.546;19.254;2023-06-22T08:35:14;13.30;;;4.70;;
51214;SDS011;63849;47.546;19.254;2023-06-22T08:37:39;8.00;;;4.68;;
51214;SDS011;63849;47.546;19.254;2023-06-22T08:40:06;6.80;;;4.60;;
51214;SDS011;63849;47.546;19.254;2023-06-22T08:42:34;8.38;;;4.63;;
51214;SDS011;63849;47.546;19.254;2023-06-22T08:45:00;7.65;;;4.70;;
51214;SDS011;63849;47.546;19.254;2023-06-22T08:47:29;7.90;;;5.40;;
51214;SDS011;63849;47.546;19.254;2023-06-22T08:49:54;9.38;;;5.60;;
51214;SDS011;63849;47.546;19.254;2023-06-22T08:52:20;7.72;;;5.50;;
51214;SDS011;63849;47.546;19.254;2023-06-22T08:54:48;9.60;;;5.50;;
51214;SDS011;63849;47.546;19.254;2023-06-22T08:57:14;10.75;;;5.78;;
51214;SDS011;63849;47.546;19.254;2023-06-22T08:59:41;9.82;;;5.47;;
51214;SDS011;63849;47.546;19.254;2023-06-22T09:02:07;9.75;;;5.22;;
51214;SDS011;63849;47.546;19.254;2023-06-22T09:04:34;10.55;;;5.45;;
51214;SDS011;63849;47.546;19.254;2023-06-22T09:07:02;7.20;;;5.93;;
51214;SDS011;63849;47.546;19.254;2023-06-22T09:09:28;9.50;;;6.00;;
51214;SDS011;63849;47.546;19.254;2023-06-22T09:11:54;7.75;;;5.95;;
51214;SDS011;63849;47.546;19.254;2023-06-22T09:14:19;7.45;;;6.18;;
51214;SDS011;63849;47.546;19.254;2023-06-22T09:16:45;7.80;;;6.30;;
51214;SDS011;63849;47.546;19.254;2023-06-22T09:19:11;9.63;;;6.05;;
51214;SDS011;63849;47.546;19.254;2023-06-22T09:21:37;7.85;;;6.05;;
51214;SDS011;63849;47.546;19.254;2023-06-22T09:24:03;8.35;;;6.40;;
51214;SDS011;63849;47.546;19.254;2023-06-22T09:26:29;7.75;;;6.00;;
51214;SDS011;63849;47.546;19.254;2023-06-22T09:28:55;8.05;;;6.57;;
51214;SDS011;63849;47.546;19.254;2023-06-22T09:31:21;8.05;;;6.90;;
51214;SDS011;63849;47.546;19.254;2023-06-22T09:33:53;7.20;;;6.22;;
51214;SDS011;63849;47.546;19.254;2023-06-22T09:36:20;9.20;;;6.65;;
51214;SDS011;63849;47.546;19.254;2023-06-22T09:38:47;9.75;;;7.20;;
51214;SDS011;63849;47.546;19.254;2023-06-22T09:41:14;12.00;;;7.50;;
51214;SDS011;63849;47.546;19.254;2023-06-22T09:43:41;11.05;;;7.47;;
51214;SDS011;63849;47.546;19.254;2023-06-22T09:46:06;9.85;;;7.72;;
51214;SDS011;63849;47.546;19.254;2023-06-22T09:48:34;9.07;;;7.72;;
51214;SDS011;63849;47.546;19.254;2023-06-22T09:51:00;8.48;;;7.40;;
51214;SDS011;63849;47.546;19.254;2023-06-22T09:53:26;9.98;;;7.18;;
51214;SDS011;63849;47.546;19.254;2023-06-22T09:55:51;8.93;;;7.10;;
51214;SDS011;63849;47.546;19.254;2023-06-22T09:58:17;9.48;;;7.70;;
51214;SDS011;63849;47.546;19.254;2023-06-22T10:00:43;8.38;;;7.53;;
51214;SDS011;63849;47.546;19.254;2023-06-22T10:03:09;8.65;;;7.55;;
51214;SDS011;63849;47.546;19.254;2023-06-22T10:05:34;12.55;;;7.85;;
51214;SDS011;63849;47.546;19.254;2023-06-22T10:08:00;9.80;;;7.65;;
51214;SDS011;63849;47.546;19.254;2023-06-22T10:10:26;11.13;;;7.90;;
51214;SDS011;63849;47.546;19.254;2023-06-22T10:12:55;8.38;;;7.55;;
51214;SDS011;63849;47.546;19.254;2023-06-22T10:15:23;10.73;;;8.50;;
51214;SDS011;63849;47.546;19.254;2023-06-22T10:17:52;12.05;;;8.13;;
51214;SDS011;63849;47.546;19.254;2023-06-22T10:20:17;8.48;;;7.63;;
51214;SDS011;63849;47.546;19.254;2023-06-22T10:22:44;8.63;;;7.78;;
51214;SDS011;63849;47.546;19.254;2023-06-22T10:25:11;8.70;;;7.75;;
51214;SDS011;63849;47.546;19.254;2023-06-22T10:27:38;8.60;;;7.75;;
51214;SDS011;63849;47.546;19.254;2023-06-22T10:30:08;11.38;;;7.93;;
51214;SDS011;63849;47.546;19.254;2023-06-22T10:32:35;10.98;;;8.25;;
51214;SDS011;63849;47.546;19.254;2023-06-22T10:35:02;9.10;;;8.02;;
51214;SDS011;63849;47.546;19.254;2023-06-22T10:37:28;9.55;;;8.20;;
51214;SDS011;63849;47.546;19.254;2023-06-22T10:39:54;8.57;;;7.80;;
51214;SDS011;63849;47.546;19.254;2023-06-22T10:42:19;9.82;;;8.25;;
51214;SDS011;63849;47.546;19.254;2023-06-22T10:44:46;9.90;;;7.78;;
51214;SDS011;63849;47.546;19.254;2023-06-22T10:47:11;9.95;;;7.97;;
51214;SDS011;63849;47.546;19.254;2023-06-22T10:49:38;9.68;;;8.25;;
51214;SDS011;63849;47.546;19.254;2023-06-22T10:52:05;11.27;;;8.65;;
51214;SDS011;63849;47.546;19.254;2023-06-22T10:54:35;11.82;;;8.73;;
51214;SDS011;63849;47.546;19.254;2023-06-22T10:57:02;11.00;;;8.13;;
51214;SDS011;63849;47.546;19.254;2023-06-22T10:59:28;12.15;;;8.93;;
51214;SDS011;63849;47.546;19.254;2023-06-22T11:01:57;10.20;;;8.68;;
51214;SDS011;63849;47.546;19.254;2023-06-22T11:04:23;9.40;;;8.35;;
51214;SDS011;63849;47.546;19.254;2023-06-22T11:06:49;8.85;;;7.63;;
51214;SDS011;63849;47.546;19.254;2023-06-22T11:09:16;10.95;;;8.88;;
51214;SDS011;63849;47.546;19.254;2023-06-22T11:11:45;9.48;;;8.25;;
51214;SDS011;63849;47.546;19.254;2023-06-22T11:14:12;9.52;;;8.52;;
51214;SDS011;63849;47.546;19.254;2023-06-22T11:16:38;9.18;;;8.15;;
51214;SDS011;63849;47.546;19.254;2023-06-22T11:19:04;9.30;;;8.10;;
51214;SDS011;63849;47.546;19.254;2023-06-22T11:21:30;11.02;;;8.27;;
51214;SDS011;63849;47.546;19.254;2023-06-22T11:23:56;12.18;;;8.18;;
51214;SDS011;63849;47.546;19.254;2023-06-22T11:26:22;12.68;;;8.93;;
51214;SDS011;63849;47.546;19.254;2023-06-22T11:28:48;10.68;;;8.73;;
51214;SDS011;63849;47.546;19.254;2023-06-22T11:31:14;12.10;;;9.52;;
51214;SDS011;63849;47.546;19.254;2023-06-22T11:33:40;9.23;;;8.43;;
51214;SDS011;63849;47.546;19.254;2023-06-22T11:36:05;10.43;;;8.25;;
51214;SDS011;63849;47.546;19.254;2023-06-22T11:38:31;8.63;;;7.75;;
51214;SDS011;63849;47.546;19.254;2023-06-22T11:40:58;9.13;;;8.13;;
51214;SDS011;63849;47.546;19.254;2023-06-22T11:43:24;11.68;;;8.00;;
51214;SDS011;63849;47.546;19.254;2023-06-22T11:45:50;10.82;;;9.25;;
51214;SDS011;63849;47.546;19.254;2023-06-22T11:48:16;11.63;;;8.32;;
51214;SDS011;63849;47.546;19.254;2023-06-22T11:50:41;12.32;;;8.80;;
51214;SDS011;63849;47.546;19.254;2023-06-22T11:53:07;12.38;;;9.13;;
51214;SDS011;63849;47.546;19.254;2023-06-22T11:55:33;9.48;;;8.50;;
51214;SDS011;63849;47.546;19.254;2023-06-22T11:57:59;11.07;;;8.07;;
51214;SDS011;63849;47.546;19.254;2023-06-22T12:00:28;10.63;;;9.13;;
51214;SDS011;63849;47.546;19.254;2023-06-22T12:02:54;9.63;;;8.27;;
51214;SDS011;63849;47.546;19.254;2023-06-22T12:05:21;10.35;;;8.65;;
51214;SDS011;63849;47.546;19.254;2023-06-22T12:07:47;9.82;;;8.65;;
51214;SDS011;63849;47.546;19.254;2023-06-22T12:10:14;9.48;;;8.57;;
51214;SDS011;63849;47.546;19.254;2023-06-22T12:12:40;11.80;;;8.65;;
51214;SDS011;63849;47.546;19.254;2023-06-22T12:15:06;11.50;;;9.10;;
51214;SDS011;63849;47.546;19.254;2023-06-22T12:17:33;9.27;;;8.38;;
51214;SDS011;63849;47.546;19.254;2023-06-22T12:19:59;9.43;;;8.27;;
51214;SDS011;63849;47.546;19.254;2023-06-22T12:22:25;10.65;;;8.07;;
51214;SDS011;63849;47.546;19.254;2023-06-22T12:24:51;9.30;;;7.88;;
51214;SDS011;63849;47.546;19.254;2023-06-22T12:27:17;13.35;;;8.23;;
51214;SDS011;63849;47.546;19.254;2023-06-22T12:29:46;10.05;;;8.32;;
51214;SDS011;63849;47.546;19.254;2023-06-22T12:32:12;12.00;;;8.63;;
51214;SDS011;63849;47.546;19.254;2023-06-22T12:34:39;9.52;;;8.30;;
51214;SDS011;63849;47.546;19.254;2023-06-22T12:37:05;10.52;;;8.20;;
51214;SDS011;63849;47.546;19.254;2023-06-22T12:39:34;9.75;;;8.75;;
51214;SDS011;63849;47.546;19.254;2023-06-22T12:42:00;14.75;;;8.65;;
51214;SDS011;63849;47.546;19.254;2023-06-22T12:44:26;9.50;;;8.57;;
51214;SDS011;63849;47.546;19.254;2023-06-22T12:46:52;10.07;;;8.77;;
51214;SDS011;63849;47.546;19.254;2023-06-22T12:49:17;9.30;;;8.38;;
51214;SDS011;63849;47.546;19.254;2023-06-22T12:51:44;8.70;;;7.82;;
51214;SDS011;63849;47.546;19.254;2023-06-22T12:54:10;12.75;;;8.40;;
51214;SDS011;63849;47.546;19.254;2023-06-22T12:56:37;12.10;;;9.00;;
51214;SDS011;63849;47.546;19.254;2023-06-22T12:59:03;9.93;;;8.18;;
51214;SDS011;63849;47.546;19.254;2023-06-22T13:01:29;12.65;;;9.00;;
51214;SDS011;63849;47.546;19.254;2023-06-22T13:03:57;12.57;;;8.80;;
51214;SDS011;63849;47.546;19.254;2023-06-22T13:06:25;11.45;;;8.95;;
51214;SDS011;63849;47.546;19.254;2023-06-22T13:08:51;10.13;;;8.45;;
51214;SDS011;63849;47.546;19.254;2023-06-22T13:11:17;9.32;;;8.43;;
51214;SDS011;63849;47.546;19.254;2023-06-22T13:13:44;11.13;;;8.50;;
51214;SDS011;63849;47.546;19.254;2023-06-22T13:16:10;9.82;;;8.45;;
51214;SDS011;63849;47.546;19.254;2023-06-22T13:18:36;10.20;;;8.57;;
51214;SDS011;63849;47.546;19.254;2023-06-22T13:21:02;11.93;;;9.35;;
51214;SDS011;63849;47.546;19.254;2023-06-22T13:23:28;10.85;;;8.82;;
51214;SDS011;63849;47.546;19.254;2023-06-22T13:25:54;9.50;;;7.50;;
51214;SDS011;63849;47.546;19.254;2023-06-22T13:28:20;9.02;;;7.85;;
51214;SDS011;63849;47.546;19.254;2023-06-22T13:30:46;9.73;;;8.23;;
51214;SDS011;63849;47.546;19.254;2023-06-22T13:33:13;8.65;;;7.88;;
51214;SDS011;63849;47.546;19.254;2023-06-22T13:35:40;10.38;;;8.35;;
51214;SDS011;63849;47.546;19.254;2023-06-22T13:38:07;9.63;;;8.38;;
51214;SDS011;63849;47.546;19.254;2023-06-22T13:40:34;10.98;;;8.77;;
51214;SDS011;63849;47.546;19.254;2023-06-22T13:43:00;9.00;;;8.10;;
51214;SDS011;63849;47.546;19.254;2023-06-22T13:45:26;10.65;;;8.90;;
51214;SDS011;63849;47.546;19.254;2023-06-22T13:47:52;9.52;;;8.20;;
51214;SDS011;63849;47.546;19.254;2023-06-22T13:50:18;11.30;;;8.65;;
51214;SDS011;63849;47.546;19.254;2023-06-22T13:52:43;10.20;;;9.13;;
51214;SDS011;63849;47.546;19.254;2023-06-22T13:55:09;11.30;;;8.55;;
51214;SDS011;63849;47.546;19.254;2023-06-22T13:57:35;9.82;;;8.82;;
51214;SDS011;63849;47.546;19.254;2023-06-22T14:00:02;8.85;;;8.05;;
51214;SDS011;63849;47.546;19.254;2023-06-22T14:02:30;11.20;;;9.05;;
51214;SDS011;63849;47.546;19.254;2023-06-22T14:04:56;10.35;;;7.90;;
51214;SDS011;63849;47.546;19.254;2023-06-22T14:07:22;10.68;;;8.23;;
51214;SDS011;63849;47.546;19.254;2023-06-22T14:09:49;11.35;;;8.60;;
51214;SDS011;63849;47.546;19.254;2023-06-22T14:12:15;10.27;;;9.00;;
51214;SDS011;63849;47.546;19.254;2023-06-22T14:14:42;11.48;;;8.48;;
51214;SDS011;63849;47.546;19.254;2023-06-22T14:17:09;10.48;;;9.23;;
51214;SDS011;63849;47.546;19.254;2023-06-22T14:19:35;12.55;;;9.18;;
51214;SDS011;63849;47.546;19.254;2023-06-22T14:22:01;9.35;;;8.43;;
51214;SDS011;63849;47.546;19.254;2023-06-22T14:24:27;9.63;;;7.80;;
51214;SDS011;63849;47.546;19.254;2023-06-22T14:26:54;9.45;;;8.48;;
51214;SDS011;63849;47.546;19.254;2023-06-22T14:29:21;10.45;;;8.52;;
51214;SDS011;63849;47.546;19.254;2023-06-22T14:31:47;10.02;;;8.05;;
51214;SDS011;63849;47.546;19.254;2023-06-22T14:34:14;10.43;;;9.23;;
51214;SDS011;63849;47.546;19.254;2023-06-22T14:36:40;8.85;;;7.93;;